createdAt,value
2024-03-07T00:00:16.251Z,102122.91
2024-03-07T00:02:46.613Z,102116.47
2024-03-07T00:05:17.128Z,102127.44
2024-03-07T00:07:44.287Z,102128.75
2024-03-07T00:10:11.456Z,102117.88
2024-03-07T00:12:42.177Z,102121.44
2024-03-07T00:15:11.834Z,102129.22
2024-03-07T00:17:39.929Z,102113.91
2024-03-07T00:20:10.652Z,102118.22
2024-03-07T00:22:37.593Z,102121.22
2024-03-07T00:25:08.057Z,102121.91
2024-03-07T00:27:34.696Z,102119.53
2024-03-07T00:30:01.477Z,102122.31
2024-03-07T00:32:31.147Z,102122.91
2024-03-07T00:35:00.525Z,102125.19
2024-03-07T00:37:27.141Z,102132.56
2024-03-07T00:39:53.733Z,102127.56
2024-03-07T00:42:20.531Z,102124.84
2024-03-07T00:44:47.885Z,102121.38
2024-03-07T00:47:14.503Z,102123.41
2024-03-07T00:49:41.333Z,102126.50
2024-03-07T00:52:07.986Z,102124.47
2024-03-07T00:54:34.964Z,102124.25
2024-03-07T00:57:01.590Z,102120.06
2024-03-07T00:59:28.204Z,102119.56
2024-03-07T01:01:55.013Z,102116.84
2024-03-07T01:04:21.665Z,102125.06
2024-03-07T01:06:48.559Z,102116.97
2024-03-07T01:09:15.957Z,102121.13
2024-03-07T01:11:45.296Z,102121.81
2024-03-07T01:14:12.812Z,102128.16
2024-03-07T01:16:39.437Z,102126.72
2024-03-07T01:19:07.290Z,102129.69
2024-03-07T01:21:38.022Z,102128.72
2024-03-07T01:24:06.109Z,102121.91
2024-03-07T01:26:34.930Z,102130.13
2024-03-07T01:29:01.691Z,102129.03
2024-03-07T01:31:28.979Z,102123.41
2024-03-07T01:33:56.012Z,102126.75
2024-03-07T01:36:22.966Z,102140.34
2024-03-07T01:38:49.974Z,102134.69
2024-03-07T01:41:16.876Z,102147.53
2024-03-07T01:43:44.475Z,102154.47
2024-03-07T01:46:13.842Z,102152.72
2024-03-07T01:48:41.646Z,102150.00
2024-03-07T01:51:09.886Z,102157.00
2024-03-07T01:53:37.184Z,102155.13
2024-03-07T01:56:05.210Z,102161.31
2024-03-07T01:58:35.073Z,102153.38
2024-03-07T02:01:02.039Z,102156.50
2024-03-07T02:03:29.208Z,102159.03
2024-03-07T02:05:57.115Z,102151.69
2024-03-07T02:08:23.780Z,102152.53
2024-03-07T02:10:50.720Z,102153.47
2024-03-07T02:13:17.639Z,102150.63
2024-03-07T02:15:44.740Z,102154.50
2024-03-07T02:18:11.979Z,102146.53
2024-03-07T02:20:39.208Z,102144.66
2024-03-07T02:23:05.913Z,102151.63
2024-03-07T02:25:33.393Z,102148.00
2024-03-07T02:28:00.211Z,102131.63
2024-03-07T02:30:26.872Z,102133.31
2024-03-07T02:32:56.589Z,102125.31
2024-03-07T02:35:24.688Z,102108.72
2024-03-07T02:37:51.753Z,102107.06
2024-03-07T02:40:18.501Z,102094.38
2024-03-07T02:42:45.148Z,102080.00
2024-03-07T02:45:16.372Z,102084.03
2024-03-07T02:47:45.324Z,102079.66
2024-03-07T02:50:12.612Z,102075.94
2024-03-07T02:52:40.228Z,102079.72
2024-03-07T02:55:07.348Z,102077.94
2024-03-07T02:57:33.962Z,102079.94
2024-03-07T03:00:00.863Z,102071.50
2024-03-07T03:02:27.487Z,102056.47
2024-03-07T03:04:55.709Z,102050.94
2024-03-07T03:07:22.387Z,102039.16
2024-03-07T03:09:50.109Z,102026.81
2024-03-07T03:12:17.198Z,102024.50
2024-03-07T03:14:44.607Z,102003.69
2024-03-07T03:17:12.393Z,101951.66
2024-03-07T03:19:39.228Z,101932.03
2024-03-07T03:22:06.106Z,101904.63
2024-03-07T03:24:32.734Z,101896.28
2024-03-07T03:26:59.466Z,101893.78
2024-03-07T03:29:26.309Z,101882.59
2024-03-07T03:31:53.047Z,101872.94
2024-03-07T03:34:19.744Z,101874.25
2024-03-07T03:36:46.332Z,101873.78
2024-03-07T03:39:14.627Z,101881.75
2024-03-07T03:41:41.664Z,101876.75
2024-03-07T03:44:08.900Z,102452.09
2024-03-07T03:46:35.640Z,102456.50
2024-03-07T03:49:02.415Z,102455.66
2024-03-07T03:51:29.328Z,102455.88
2024-03-07T03:53:55.984Z,102452.84
2024-03-07T03:56:22.974Z,102455.03
2024-03-07T03:58:49.811Z,102445.06
2024-03-07T04:01:17.543Z,102442.97
2024-03-07T04:03:47.828Z,102442.66
2024-03-07T04:06:15.158Z,102436.06
2024-03-07T04:08:41.946Z,102434.78
2024-03-07T04:11:11.631Z,102435.25
2024-03-07T04:13:39.381Z,102423.59
2024-03-07T04:16:06.258Z,102425.28
2024-03-07T04:18:33.636Z,102433.16
2024-03-07T04:21:00.543Z,102437.00
2024-03-07T04:23:27.432Z,102426.75
2024-03-07T04:25:54.323Z,102430.19
2024-03-07T04:28:21.747Z,102429.88
2024-03-07T04:30:50.507Z,102432.72
2024-03-07T04:33:17.330Z,102433.13
2024-03-07T04:35:44.143Z,102432.69
2024-03-07T04:38:12.736Z,102442.25
2024-03-07T04:40:40.299Z,102421.19
2024-03-07T04:43:07.035Z,102416.78
2024-03-07T04:45:33.665Z,102415.19
2024-03-07T04:48:00.646Z,102413.84
2024-03-07T04:50:27.758Z,102419.41
2024-03-07T04:52:54.584Z,102415.94
2024-03-07T04:55:21.157Z,102417.00
2024-03-07T04:57:48.289Z,102413.84
2024-03-07T05:00:17.749Z,102419.19
2024-03-07T05:02:47.750Z,102419.19
2024-03-07T05:05:15.331Z,102421.69
2024-03-07T05:07:42.831Z,102414.91
2024-03-07T05:10:10.137Z,102418.16
2024-03-07T05:12:38.158Z,102408.50
2024-03-07T05:15:11.391Z,102409.53
2024-03-07T05:17:40.329Z,102422.09
2024-03-07T05:20:11.373Z,102420.44
2024-03-07T05:22:42.940Z,102413.09
2024-03-07T05:25:10.575Z,102415.72
2024-03-07T05:27:37.458Z,102414.66
2024-03-07T05:30:10.067Z,102401.44
2024-03-07T05:32:37.420Z,102407.13
2024-03-07T05:35:04.879Z,102403.25
2024-03-07T05:37:32.898Z,102406.91
2024-03-07T05:40:00.871Z,102405.56
2024-03-07T05:42:27.586Z,102406.59
2024-03-07T05:44:55.423Z,102405.16
2024-03-07T05:47:23.274Z,102406.41
2024-03-07T05:49:50.099Z,102404.94
2024-03-07T05:52:17.060Z,102404.22
2024-03-07T05:54:45.213Z,102399.09
2024-03-07T05:57:12.904Z,102405.59
2024-03-07T05:59:40.175Z,102399.28
2024-03-07T06:02:07.096Z,102402.53
2024-03-07T06:04:35.153Z,102393.88
2024-03-07T06:07:02.161Z,102392.16
2024-03-07T06:09:29.278Z,102397.41
2024-03-07T06:11:56.138Z,102395.84
2024-03-07T06:14:24.534Z,102399.28
2024-03-07T06:16:53.245Z,102400.34
2024-03-07T06:19:19.998Z,102397.22
2024-03-07T06:21:47.317Z,102399.72
2024-03-07T06:24:16.594Z,102399.94
2024-03-07T06:26:46.935Z,102404.44
2024-03-07T06:29:17.407Z,102403.69
2024-03-07T06:31:47.387Z,102413.25
2024-03-07T06:34:14.321Z,102405.69
2024-03-07T06:36:44.128Z,102402.00
2024-03-07T06:39:11.829Z,102405.59
2024-03-07T06:41:39.317Z,102405.38
2024-03-07T06:44:06.167Z,102400.66
2024-03-07T06:46:34.792Z,102397.19
2024-03-07T06:49:01.958Z,102390.81
2024-03-07T06:51:28.913Z,102394.06
2024-03-07T06:53:57.547Z,102397.09
2024-03-07T06:56:25.982Z,102396.66
2024-03-07T06:58:52.803Z,102400.63
2024-03-07T07:01:20.860Z,102395.56
2024-03-07T07:03:49.183Z,102404.91
2024-03-07T07:06:16.682Z,102404.91
2024-03-07T07:08:43.537Z,102399.03
2024-03-07T07:11:13.075Z,102392.72
2024-03-07T07:13:40.135Z,102398.47
2024-03-07T07:16:07.090Z,102390.59
2024-03-07T07:18:33.804Z,102386.50
2024-03-07T07:21:00.895Z,102385.91
2024-03-07T07:23:28.046Z,102381.06
2024-03-07T07:25:54.638Z,102379.69
2024-03-07T07:28:21.250Z,102379.34
2024-03-07T07:30:47.826Z,102372.81
2024-03-07T07:33:15.408Z,102366.28
2024-03-07T07:35:42.618Z,102356.91
2024-03-07T07:38:11.806Z,102350.13
2024-03-07T07:40:39.063Z,102341.81
2024-03-07T07:43:05.959Z,102331.44
2024-03-07T07:45:34.206Z,102328.38
2024-03-07T07:48:01.219Z,102319.41
2024-03-07T07:50:29.182Z,102312.38
2024-03-07T07:53:00.010Z,102309.88
2024-03-07T07:55:30.402Z,102292.69
2024-03-07T07:58:01.255Z,102292.34
2024-03-07T08:00:32.946Z,102275.50
2024-03-07T08:03:05.055Z,102265.72
2024-03-07T08:05:34.189Z,102258.41
2024-03-07T08:08:07.333Z,102250.84
2024-03-07T08:10:35.914Z,102233.25
2024-03-07T08:13:04.390Z,102220.91
2024-03-07T08:15:32.227Z,102216.97
2024-03-07T08:18:00.418Z,102210.84
2024-03-07T08:20:28.559Z,102210.03
2024-03-07T08:22:56.980Z,102210.22
2024-03-07T08:25:26.076Z,102201.00
2024-03-07T08:27:55.238Z,102210.25
2024-03-07T08:30:22.031Z,102211.59
2024-03-07T08:32:53.107Z,102218.25
2024-03-07T08:35:20.469Z,102232.78
2024-03-07T08:37:54.967Z,102244.38
2024-03-07T08:40:27.393Z,102261.25
2024-03-07T08:42:55.694Z,102283.56
2024-03-07T08:45:22.331Z,102304.94
2024-03-07T08:47:50.800Z,102334.00
2024-03-07T08:50:21.563Z,102367.53
2024-03-07T08:52:49.449Z,102400.50
2024-03-07T08:55:17.976Z,102437.09
2024-03-07T08:57:47.145Z,102458.72
2024-03-07T09:00:23.980Z,102495.38
2024-03-07T09:02:56.128Z,102515.28
2024-03-07T09:05:24.940Z,102543.13
2024-03-07T09:07:53.729Z,102557.69
2024-03-07T09:10:21.839Z,102563.00
2024-03-07T09:12:52.948Z,102579.88
2024-03-07T09:15:22.771Z,102594.09
2024-03-07T09:17:50.027Z,102586.09
2024-03-07T09:20:17.119Z,102262.78
2024-03-07T09:22:48.756Z,102282.63
2024-03-07T09:25:17.669Z,102292.91
2024-03-07T09:27:44.552Z,102295.69
2024-03-07T09:30:20.234Z,102325.47
2024-03-07T09:32:47.232Z,102324.66
2024-03-07T09:35:15.090Z,102332.69
2024-03-07T09:37:42.731Z,102371.72
2024-03-07T09:40:11.297Z,102391.69
2024-03-07T09:42:50.174Z,102422.44
2024-03-07T09:45:19.767Z,102429.38
2024-03-07T09:47:49.738Z,102444.41
2024-03-07T09:50:23.571Z,102478.19
2024-03-07T09:52:53.871Z,102492.63
2024-03-07T09:55:22.921Z,102504.28
2024-03-07T09:57:51.539Z,102541.34
2024-03-07T10:00:27.888Z,102562.94
2024-03-07T10:03:03.303Z,102582.03
2024-03-07T10:05:32.119Z,102592.09
2024-03-07T10:08:00.334Z,102626.16
2024-03-07T10:10:27.432Z,102643.06
2024-03-07T10:12:59.677Z,102642.56
2024-03-07T10:15:34.146Z,102649.59
2024-03-07T10:18:02.699Z,102662.41
2024-03-07T10:20:29.964Z,102662.88
2024-03-07T10:22:58.008Z,102666.47
2024-03-07T10:25:29.956Z,102668.03
2024-03-07T10:27:58.945Z,102677.78
2024-03-07T10:30:26.547Z,102684.66
2024-03-07T10:32:56.624Z,102685.34
2024-03-07T10:35:26.269Z,102683.91
2024-03-07T10:37:56.963Z,102688.16
2024-03-07T10:40:28.235Z,102682.91
2024-03-07T10:42:59.636Z,102690.16
2024-03-07T10:45:30.336Z,102697.00
2024-03-07T10:47:58.784Z,102692.56
2024-03-07T10:50:44.208Z,102689.03
2024-03-07T10:53:27.073Z,102696.22
2024-03-07T10:56:19.452Z,102690.72
2024-03-07T10:58:54.523Z,102696.31
2024-03-07T11:01:21.910Z,102686.84
2024-03-07T11:03:53.383Z,102686.59
2024-03-07T11:06:21.503Z,102679.34
2024-03-07T11:08:48.780Z,102676.75
2024-03-07T11:11:15.618Z,102682.88
2024-03-07T11:13:43.239Z,102681.59
2024-03-07T11:16:11.209Z,102670.38
2024-03-07T11:18:37.946Z,102670.88
2024-03-07T11:21:09.000Z,102663.19
2024-03-07T11:23:42.487Z,102653.78
2024-03-07T11:26:11.492Z,102647.69
2024-03-07T11:28:40.210Z,102646.81
2024-03-07T11:31:10.476Z,102639.53
2024-03-07T11:33:41.645Z,102632.19
2024-03-07T11:36:15.111Z,102638.00
2024-03-07T11:38:51.545Z,102631.78
2024-03-07T11:41:20.414Z,102627.84
2024-03-07T11:43:47.903Z,102622.47
2024-03-07T11:46:18.444Z,102620.03
2024-03-07T11:48:45.676Z,102611.88
2024-03-07T11:51:18.730Z,102604.88
2024-03-07T11:53:49.109Z,102604.28
2024-03-07T11:56:17.644Z,102607.69
2024-03-07T11:58:45.852Z,102597.75
2024-03-07T12:01:15.314Z,102598.81
2024-03-07T12:03:42.381Z,102592.41
2024-03-07T12:06:13.847Z,102596.56
2024-03-07T12:08:43.297Z,102590.25
2024-03-07T12:11:14.108Z,102593.66
2024-03-07T12:13:41.989Z,102586.34
2024-03-07T12:16:09.533Z,102586.78
2024-03-07T12:18:37.651Z,102589.63
2024-03-07T12:21:08.041Z,102584.88
2024-03-07T12:23:35.000Z,102579.25
2024-03-07T12:26:03.299Z,102574.84
2024-03-07T12:28:34.570Z,102571.81
2024-03-07T12:31:03.606Z,102561.91
2024-03-07T12:33:32.806Z,102556.34
2024-03-07T12:36:11.556Z,102553.16
2024-03-07T12:38:39.774Z,102551.13
2024-03-07T12:41:15.324Z,102552.91
2024-03-07T12:43:43.667Z,102545.81
2024-03-07T12:46:14.894Z,102542.84
2024-03-07T12:48:42.082Z,102533.63
2024-03-07T12:51:10.772Z,102536.22
2024-03-07T12:53:38.431Z,102527.59
2024-03-07T12:56:05.270Z,102519.50
2024-03-07T12:58:32.090Z,102519.53
2024-03-07T13:00:59.331Z,102518.19
2024-03-07T13:03:32.970Z,102515.16
2024-03-07T13:06:03.515Z,102509.75
2024-03-07T13:08:33.168Z,102496.00
2024-03-07T13:11:01.049Z,102494.94
2024-03-07T13:13:28.483Z,102498.59
2024-03-07T13:15:56.261Z,102488.66
2024-03-07T13:18:23.440Z,102491.91
2024-03-07T13:20:50.734Z,102489.81
2024-03-07T13:23:17.330Z,102483.16
2024-03-07T13:25:45.332Z,102473.25
2024-03-07T13:28:25.407Z,102474.84
2024-03-07T13:30:55.593Z,102458.53
2024-03-07T13:33:22.419Z,102473.00
2024-03-07T13:35:49.646Z,102477.38
2024-03-07T13:38:16.830Z,102473.28
2024-03-07T13:40:43.586Z,102460.00
2024-03-07T13:43:10.304Z,102460.38
2024-03-07T13:45:42.222Z,102459.31
2024-03-07T13:48:11.722Z,102455.94
2024-03-07T13:50:57.119Z,102446.63
2024-03-07T13:53:29.439Z,102443.47
2024-03-07T13:56:14.963Z,102437.56
2024-03-07T13:58:56.681Z,102433.19
2024-03-07T14:01:39.826Z,102431.84
2024-03-07T14:04:21.310Z,102430.53
2024-03-07T14:06:49.500Z,102430.75
2024-03-07T14:09:31.070Z,102424.00
2024-03-07T14:12:39.212Z,102420.56
2024-03-07T14:15:26.076Z,102418.13
2024-03-07T14:18:41.297Z,102408.59
2024-03-07T14:21:36.367Z,102412.75
2024-03-07T14:24:41.564Z,102407.50
2024-03-07T14:27:11.144Z,102399.03
2024-03-07T14:30:27.433Z,102395.22
2024-03-07T14:32:59.949Z,102402.31
2024-03-07T14:35:34.901Z,102396.25
2024-03-07T14:38:26.617Z,102400.56
2024-03-07T14:40:53.680Z,102401.19
2024-03-07T14:43:21.480Z,102394.53
2024-03-07T14:45:48.231Z,102394.59
2024-03-07T14:48:19.101Z,102395.59
2024-03-07T14:50:48.337Z,102389.00
2024-03-07T14:53:18.877Z,102392.78
2024-03-07T14:55:45.969Z,102387.41
2024-03-07T14:58:13.883Z,102376.03
2024-03-07T15:00:49.671Z,102385.28
2024-03-07T15:03:23.615Z,102373.97
2024-03-07T15:05:50.364Z,102372.56
2024-03-07T15:08:17.709Z,102371.38
2024-03-07T15:10:55.869Z,102368.63
2024-03-07T15:13:22.794Z,102373.09
2024-03-07T15:15:49.466Z,102370.81
2024-03-07T15:18:16.412Z,102362.13
2024-03-07T15:20:43.561Z,102355.00
2024-03-07T15:23:10.186Z,102350.56
2024-03-07T15:25:37.909Z,102347.69
2024-03-07T15:28:04.979Z,102345.19
2024-03-07T15:30:37.647Z,102344.44
2024-03-07T15:33:05.975Z,102343.13
2024-03-07T15:35:34.309Z,102337.41
2024-03-07T15:38:01.503Z,102335.84
2024-03-07T15:40:28.949Z,102332.41
2024-03-07T15:43:02.688Z,102318.25
2024-03-07T15:45:30.564Z,102315.59
2024-03-07T15:48:00.009Z,102316.13
2024-03-07T15:50:30.915Z,102316.81
2024-03-07T15:53:01.195Z,102305.09
2024-03-07T15:55:29.743Z,102311.56
2024-03-07T15:57:57.626Z,102291.81
2024-03-07T16:00:26.411Z,102294.75
2024-03-07T16:03:00.762Z,102288.66
2024-03-07T16:05:29.822Z,102291.31
2024-03-07T16:07:57.824Z,102283.66
2024-03-07T16:10:27.820Z,102287.50
2024-03-07T16:12:55.040Z,102286.94
2024-03-07T16:15:35.563Z,102283.63
2024-03-07T16:18:09.606Z,102272.34
2024-03-07T16:20:36.942Z,102267.34
2024-03-07T16:23:07.154Z,102269.84
2024-03-07T16:25:39.142Z,102268.63
2024-03-07T16:28:07.828Z,102262.13
2024-03-07T16:30:35.112Z,102256.00
2024-03-07T16:33:02.097Z,102257.94
2024-03-07T16:35:34.087Z,102252.81
2024-03-07T16:38:01.372Z,102242.06
2024-03-07T16:40:29.868Z,102239.13
2024-03-07T16:43:02.137Z,102241.28
2024-03-07T16:45:30.894Z,102246.00
2024-03-07T16:48:02.169Z,102241.84
2024-03-07T16:50:33.377Z,102248.44
2024-03-07T16:53:06.766Z,102241.53
2024-03-07T16:55:40.434Z,102242.94
2024-03-07T16:58:14.573Z,102247.66
2024-03-07T17:00:43.958Z,102238.09
2024-03-07T17:03:13.361Z,102239.81
2024-03-07T17:05:42.647Z,102242.56
2024-03-07T17:08:15.484Z,102243.56
2024-03-07T17:10:44.776Z,102244.69
2024-03-07T17:13:13.620Z,102245.38
2024-03-07T17:15:41.254Z,102248.34
2024-03-07T17:18:11.659Z,102243.31
2024-03-07T17:20:40.159Z,102240.81
2024-03-07T17:23:07.116Z,102252.19
2024-03-07T17:25:34.294Z,102248.88
2024-03-07T17:28:01.610Z,102249.13
2024-03-07T17:30:32.871Z,102247.72
2024-03-07T17:33:00.933Z,102243.44
2024-03-07T17:35:30.171Z,102247.88
2024-03-07T17:37:58.097Z,102243.97
2024-03-07T17:40:28.476Z,102246.03
2024-03-07T17:42:56.468Z,102258.41
2024-03-07T17:45:29.231Z,102254.94
2024-03-07T17:47:58.917Z,102254.25
2024-03-07T17:50:27.626Z,102254.00
2024-03-07T17:53:02.038Z,102266.19
2024-03-07T17:55:33.434Z,102263.56
2024-03-07T17:58:02.875Z,102272.41
2024-03-07T18:00:30.112Z,102267.13
2024-03-07T18:02:59.395Z,102269.34
2024-03-07T18:05:37.942Z,102260.63
2024-03-07T18:08:22.407Z,102269.19
2024-03-07T18:10:57.551Z,102262.53
2024-03-07T18:13:24.626Z,102248.78
2024-03-07T18:15:51.357Z,102261.69
2024-03-07T18:18:18.756Z,102263.88
2024-03-07T18:20:46.970Z,102261.38
2024-03-07T18:23:14.567Z,102257.59
2024-03-07T18:25:42.499Z,102263.59
2024-03-07T18:28:10.132Z,102256.19
2024-03-07T18:30:36.883Z,102254.06
2024-03-07T18:33:05.928Z,102259.78
2024-03-07T18:35:37.938Z,102251.44
2024-03-07T18:38:07.831Z,102265.25
2024-03-07T18:40:37.560Z,102262.03
2024-03-07T18:43:13.413Z,102260.53
2024-03-07T18:45:45.679Z,102259.41
2024-03-07T18:48:13.963Z,102255.75
2024-03-07T18:50:48.961Z,102262.00
2024-03-07T18:53:20.729Z,102252.19
2024-03-07T18:55:49.861Z,102252.69
2024-03-07T18:58:18.300Z,102245.63
2024-03-07T19:00:45.699Z,102238.97
2024-03-07T19:03:16.394Z,102242.41
2024-03-07T19:05:47.102Z,102238.41
2024-03-07T19:08:21.450Z,102237.28
2024-03-07T19:10:49.660Z,102230.63
2024-03-07T19:13:18.421Z,102230.63
2024-03-07T19:15:45.763Z,102234.91
2024-03-07T19:18:15.520Z,102223.22
2024-03-07T19:20:48.933Z,102231.53
2024-03-07T19:23:18.512Z,102228.91
2024-03-07T19:25:46.142Z,102227.66
2024-03-07T19:28:16.123Z,102219.06
2024-03-07T19:30:51.538Z,102219.34
2024-03-07T19:33:19.898Z,102213.25
2024-03-07T19:35:49.294Z,102216.28
2024-03-07T19:38:16.535Z,102219.44
2024-03-07T19:40:43.667Z,102220.81
2024-03-07T19:43:11.031Z,102215.25
2024-03-07T19:45:42.173Z,102214.28
2024-03-07T19:48:13.495Z,102216.31
2024-03-07T19:50:43.146Z,102210.47
2024-03-07T19:53:16.397Z,102211.72
2024-03-07T19:55:46.120Z,102204.41
2024-03-07T19:58:14.285Z,102202.84
2024-03-07T20:00:45.870Z,102205.63
2024-03-07T20:03:21.504Z,102202.00
2024-03-07T20:05:54.040Z,102208.38
2024-03-07T20:08:22.474Z,102202.09
2024-03-07T20:10:51.087Z,102199.13
2024-03-07T20:13:19.384Z,102194.09
2024-03-07T20:15:46.494Z,102195.53
2024-03-07T20:18:14.267Z,102198.34
2024-03-07T20:20:45.284Z,102198.97
2024-03-07T20:23:14.929Z,102193.03
2024-03-07T20:25:42.990Z,102185.38
2024-03-07T20:28:09.914Z,102191.13
2024-03-07T20:30:36.928Z,102187.66
2024-03-07T20:33:04.579Z,102187.19
2024-03-07T20:35:32.697Z,102193.28
2024-03-07T20:38:02.917Z,102190.78
2024-03-07T20:40:29.862Z,102188.56
2024-03-07T20:42:58.996Z,102193.69
2024-03-07T20:45:25.799Z,102184.94
2024-03-07T20:47:52.718Z,102179.50
2024-03-07T20:50:28.872Z,102181.97
2024-03-07T20:52:55.465Z,102182.09
2024-03-07T20:55:28.340Z,102178.03
2024-03-07T20:57:57.279Z,102177.25
2024-03-07T21:00:25.446Z,102186.56
2024-03-07T21:02:54.042Z,102175.72
2024-03-07T21:05:21.756Z,102175.97
2024-03-07T21:07:50.256Z,102171.44
2024-03-07T21:10:20.808Z,102170.38
2024-03-07T21:12:48.582Z,102163.56
2024-03-07T21:15:16.561Z,102166.06
2024-03-07T21:17:43.618Z,102168.47
2024-03-07T21:20:14.543Z,102169.31
2024-03-07T21:22:42.559Z,102157.81
2024-03-07T21:25:14.016Z,102168.09
2024-03-07T21:27:41.979Z,102162.84
2024-03-07T21:30:10.764Z,102160.94
2024-03-07T21:32:40.571Z,102159.41
2024-03-07T21:35:12.799Z,102159.75
2024-03-07T21:37:41.987Z,102148.38
2024-03-07T21:40:09.534Z,102153.63
2024-03-07T21:42:36.161Z,102152.31
2024-03-07T21:45:02.987Z,102145.97
2024-03-07T21:47:29.673Z,102146.94
2024-03-07T21:49:59.286Z,102135.34
2024-03-07T21:52:26.486Z,102137.38
2024-03-07T21:54:53.093Z,102134.81
2024-03-07T21:57:19.735Z,102127.06
2024-03-07T21:59:46.369Z,102126.22
2024-03-07T22:02:16.184Z,102126.22
2024-03-07T22:07:16.151Z,102124.31
2024-03-07T22:09:45.567Z,102118.47
2024-03-07T22:12:12.307Z,102125.03
2024-03-07T22:14:40.843Z,102122.53
2024-03-07T22:17:07.892Z,102115.13
2024-03-07T22:19:37.773Z,102113.00
2024-03-07T22:22:07.437Z,102104.63
2024-03-07T22:24:34.109Z,102106.66
2024-03-07T22:27:01.482Z,102101.19
2024-03-07T22:29:28.356Z,102103.44
2024-03-07T22:31:55.041Z,102103.69
2024-03-07T22:34:21.630Z,102093.97
2024-03-07T22:36:51.498Z,102095.16
2024-03-07T22:39:20.640Z,102091.00
2024-03-07T22:41:47.673Z,102098.16
2024-03-07T22:44:14.693Z,102093.53
2024-03-07T22:46:41.601Z,102086.97
2024-03-07T22:49:08.893Z,102093.31
2024-03-07T22:51:35.621Z,102087.34
2024-03-07T22:54:02.409Z,102078.88
2024-03-07T22:56:29.042Z,102081.75
2024-03-07T22:58:59.879Z,102079.00
2024-03-07T23:01:33.244Z,102075.53
2024-03-07T23:04:01.127Z,102070.16
2024-03-07T23:06:32.903Z,102070.88
2024-03-07T23:09:00.264Z,102070.53
2024-03-07T23:11:26.981Z,102058.34
2024-03-07T23:13:53.632Z,102056.09
2024-03-07T23:16:20.230Z,102053.28
2024-03-07T23:18:48.110Z,102050.66
2024-03-07T23:21:14.946Z,102051.00
2024-03-07T23:23:42.768Z,102047.44
2024-03-07T23:26:09.951Z,102044.56
2024-03-07T23:28:37.163Z,102034.56
2024-03-07T23:31:05.181Z,102029.31
2024-03-07T23:33:31.980Z,102029.66
2024-03-07T23:35:58.599Z,102028.38
2024-03-07T23:38:25.395Z,102028.59
2024-03-07T23:40:52.100Z,102029.81
2024-03-07T23:43:21.184Z,102024.06
2024-03-07T23:45:48.651Z,102014.03
2024-03-07T23:48:15.404Z,102026.91
2024-03-07T23:50:42.714Z,102018.56
2024-03-07T23:53:09.397Z,102025.75
2024-03-07T23:55:37.251Z,102015.59
2024-03-07T23:58:03.989Z,102015.59
